createdAt,value
2022-08-05T00:02:52.448Z,99.90
2022-08-05T00:08:00.027Z,99.90
2022-08-05T00:12:55.670Z,99.90
2022-08-05T00:17:39.955Z,99.90
2022-08-05T00:22:25.238Z,99.90
2022-08-05T00:27:10.446Z,99.90
2022-08-05T00:32:12.499Z,99.90
2022-08-05T00:37:10.761Z,99.90
2022-08-05T00:41:57.137Z,99.90
2022-08-05T00:46:43.427Z,99.90
2022-08-05T00:51:51.492Z,99.90
2022-08-05T00:56:32.372Z,99.90
2022-08-05T01:01:42.125Z,99.90
2022-08-05T01:06:20.253Z,99.90
2022-08-05T01:11:22.451Z,97.60
2022-08-05T01:16:26.349Z,96.60
2022-08-05T01:21:23.024Z,96.40
2022-08-05T01:26:45.964Z,96.60
2022-08-05T01:31:42.607Z,99.70
2022-08-05T01:36:32.541Z,99.90
2022-08-05T01:41:21.893Z,99.90
2022-08-05T01:46:16.264Z,99.90
2022-08-05T01:51:12.170Z,99.90
2022-08-05T01:55:59.670Z,99.90
2022-08-05T02:00:52.299Z,99.90
2022-08-05T02:05:39.781Z,99.90
2022-08-05T02:10:30.248Z,99.90
2022-08-05T02:15:19.653Z,99.90
2022-08-05T02:20:09.711Z,99.90
2022-08-05T02:24:55.381Z,99.90
2022-08-05T02:29:59.486Z,98.30
2022-08-05T02:34:51.682Z,97.00
2022-08-05T02:39:41.359Z,96.60
2022-08-05T02:44:33.310Z,97.10
2022-08-05T02:49:20.534Z,96.60
2022-08-05T02:54:07.009Z,96.30
2022-08-05T02:58:53.602Z,96.60
2022-08-05T03:04:04.342Z,97.50
2022-08-05T03:08:47.470Z,97.20
2022-08-05T03:13:52.082Z,96.10
2022-08-05T03:18:39.274Z,97.70
2022-08-05T03:23:25.998Z,98.30
2022-08-05T03:28:12.018Z,97.80
2022-08-05T03:32:57.636Z,97.80
2022-08-05T03:37:46.683Z,98.20
2022-08-05T03:42:32.801Z,98.00
2022-08-05T03:47:30.353Z,96.90
2022-08-05T03:52:37.043Z,97.00
2022-08-05T03:57:42.492Z,96.70
2022-08-05T04:02:37.723Z,98.00
2022-08-05T04:07:24.532Z,98.50
2022-08-05T04:12:23.679Z,98.70
2022-08-05T04:17:11.316Z,99.00
2022-08-05T04:22:08.092Z,99.90
2022-08-05T04:26:54.473Z,99.90
2022-08-05T04:31:41.709Z,99.90
2022-08-05T04:36:49.501Z,99.90
2022-08-05T04:41:37.778Z,99.90
2022-08-05T04:46:28.530Z,99.90
2022-08-05T04:51:12.717Z,99.90
2022-08-05T04:56:33.323Z,99.90
2022-08-05T05:01:01.995Z,99.90
2022-08-05T05:06:39.828Z,99.90
2022-08-05T05:10:55.855Z,99.90
2022-08-05T05:15:57.909Z,99.90
2022-08-05T05:20:46.177Z,99.20
2022-08-05T05:25:41.061Z,98.80
2022-08-05T05:30:29.384Z,99.60
2022-08-05T05:35:18.842Z,99.40
2022-08-05T05:40:05.498Z,98.50
2022-08-05T05:44:51.152Z,97.80
2022-08-05T05:49:34.662Z,98.50
2022-08-05T05:54:18.236Z,98.60
2022-08-05T05:59:07.503Z,98.40
2022-08-05T06:04:00.890Z,97.60
2022-08-05T06:08:49.132Z,96.90
2022-08-05T06:13:40.827Z,96.40
2022-08-05T06:18:36.585Z,96.50
2022-08-05T06:23:22.946Z,96.40
2022-08-05T06:28:10.651Z,96.20
2022-08-05T06:33:02.529Z,97.20
2022-08-05T06:37:57.713Z,99.10
2022-08-05T06:42:42.463Z,99.80
2022-08-05T06:48:11.418Z,99.90
2022-08-05T06:52:37.972Z,99.80
2022-08-05T06:57:57.403Z,99.90
2022-08-05T07:02:28.864Z,98.60
2022-08-05T07:07:12.907Z,99.90
2022-08-05T07:12:00.486Z,99.90
2022-08-05T07:17:57.117Z,99.90
2022-08-05T07:22:00.691Z,99.90
2022-08-05T07:26:45.649Z,99.90
2022-08-05T07:31:40.961Z,99.90
2022-08-05T07:36:35.390Z,99.90
2022-08-05T07:42:08.331Z,99.90
2022-08-05T07:46:29.415Z,99.90
2022-08-05T07:51:23.662Z,99.90
2022-08-05T07:57:00.323Z,99.90
2022-08-05T08:01:26.379Z,99.90
2022-08-05T08:06:13.659Z,99.90
2022-08-05T08:10:57.386Z,99.90
2022-08-05T08:16:35.317Z,99.90
2022-08-05T08:21:02.022Z,99.90
2022-08-05T08:26:02.173Z,99.90
2022-08-05T08:30:49.935Z,99.90
2022-08-05T08:35:35.192Z,99.90
2022-08-05T08:40:26.445Z,99.90
2022-08-05T08:45:19.289Z,99.90
2022-08-05T08:50:31.930Z,99.90
2022-08-05T08:55:19.529Z,99.90
2022-08-05T09:00:20.571Z,98.40
2022-08-05T09:05:16.732Z,97.80
2022-08-05T09:10:02.979Z,96.50
2022-08-05T09:14:58.480Z,96.10
2022-08-05T09:20:01.672Z,94.90
2022-08-05T09:24:59.771Z,93.40
2022-08-05T09:29:47.969Z,94.80
2022-08-05T09:34:48.448Z,93.40
2022-08-05T09:39:45.026Z,92.80
2022-08-05T09:44:37.719Z,92.80
2022-08-05T09:49:54.486Z,92.10
2022-08-05T09:54:32.316Z,92.40
2022-08-05T09:59:17.604Z,92.40
2022-08-05T10:04:10.478Z,90.50
2022-08-05T10:09:10.608Z,88.40
2022-08-05T10:14:25.012Z,90.10
2022-08-05T10:19:11.869Z,90.50
2022-08-05T10:24:00.318Z,86.00
2022-08-05T10:28:45.348Z,88.10
2022-08-05T10:33:35.086Z,86.70
2022-08-05T10:38:21.659Z,85.70
2022-08-05T10:43:19.310Z,84.40
2022-08-05T10:48:38.355Z,85.50
2022-08-05T10:53:42.554Z,87.10
2022-08-05T10:58:35.890Z,86.80
2022-08-05T11:03:31.723Z,88.20
2022-08-05T11:08:34.345Z,91.10
2022-08-05T11:13:54.839Z,86.20
2022-08-05T11:18:46.921Z,85.40
2022-08-05T11:24:04.720Z,82.90
2022-08-05T11:28:47.120Z,81.80
2022-08-05T11:33:43.748Z,82.80
2022-08-05T11:38:55.321Z,81.10
2022-08-05T11:44:04.530Z,80.50
2022-08-05T11:48:51.062Z,78.10
2022-08-05T11:53:40.758Z,78.60
2022-08-05T11:58:31.430Z,82.20
2022-08-05T12:03:28.548Z,79.20
2022-08-05T12:08:18.258Z,77.20
2022-08-05T12:13:16.330Z,80.30
2022-08-05T12:18:03.756Z,72.90
2022-08-05T12:22:48.053Z,77.90
2022-08-05T12:27:53.050Z,80.00
2022-08-05T12:32:44.646Z,76.60
2022-08-05T12:37:34.311Z,73.70
2022-08-05T12:42:19.806Z,74.80
2022-08-05T12:47:05.291Z,75.80
2022-08-05T12:52:14.395Z,79.40
2022-08-05T12:56:59.678Z,73.60
2022-08-05T13:02:01.312Z,69.80
2022-08-05T13:06:53.533Z,73.40
2022-08-05T13:12:03.020Z,70.90
2022-08-05T13:16:49.439Z,72.30
2022-08-05T13:21:37.947Z,72.80
2022-08-05T13:26:33.131Z,68.70
2022-08-05T13:31:17.092Z,70.20
2022-08-05T13:36:19.816Z,65.60
2022-08-05T13:41:05.935Z,68.40
2022-08-05T13:45:51.338Z,68.40
2022-08-05T13:50:34.873Z,70.50
2022-08-05T13:55:41.692Z,68.90
2022-08-05T14:00:27.042Z,66.40
2022-08-05T14:05:15.194Z,67.80
2022-08-05T14:10:03.435Z,67.20
2022-08-05T14:14:47.657Z,67.70
2022-08-05T14:19:54.568Z,67.00
2022-08-05T14:24:40.219Z,69.80
2022-08-05T14:29:23.852Z,73.50
2022-08-05T14:34:07.446Z,78.60
2022-08-05T14:38:55.646Z,83.20
2022-08-05T14:43:59.502Z,81.90
2022-08-05T14:48:49.906Z,83.60
2022-08-05T14:53:33.659Z,84.40
2022-08-05T14:58:28.254Z,86.00
2022-08-05T15:03:14.381Z,87.80
2022-08-05T15:08:08.817Z,87.00
2022-08-05T15:13:04.069Z,88.50
2022-08-05T15:17:53.042Z,89.50
2022-08-05T15:22:38.283Z,90.00
2022-08-05T15:27:21.843Z,90.30
2022-08-05T15:32:09.223Z,91.20
2022-08-05T15:36:52.922Z,92.00
2022-08-05T15:41:58.201Z,92.60
2022-08-05T15:46:41.471Z,92.50
2022-08-05T15:52:03.320Z,92.90
2022-08-05T15:56:31.323Z,92.40
2022-08-05T16:01:20.076Z,92.20
2022-08-05T16:06:03.835Z,92.00
2022-08-05T16:10:48.206Z,93.10
2022-08-05T16:15:34.051Z,93.90
2022-08-05T16:20:19.743Z,94.90
2022-08-05T16:25:08.001Z,96.90
2022-08-05T16:29:53.665Z,97.10
2022-08-05T16:34:39.232Z,99.50
2022-08-05T16:40:06.424Z,99.90
2022-08-05T16:44:30.544Z,99.90
2022-08-05T16:49:14.300Z,99.90
2022-08-05T16:54:02.742Z,99.90
2022-08-05T16:58:51.653Z,99.90
2022-08-05T17:03:35.167Z,99.90
2022-08-05T17:08:36.709Z,99.90
2022-08-05T17:13:37.681Z,99.90
2022-08-05T17:18:26.618Z,99.90
2022-08-05T17:23:10.272Z,99.90
2022-08-05T17:28:17.181Z,99.90
2022-08-05T17:33:00.737Z,99.90
2022-08-05T17:37:48.440Z,99.90
2022-08-05T17:42:33.110Z,99.90
2022-08-05T17:47:16.841Z,99.90
2022-08-05T17:52:04.553Z,99.90
2022-08-05T17:56:49.567Z,99.90
2022-08-05T18:01:47.190Z,99.90
2022-08-05T18:06:34.310Z,99.90
2022-08-05T18:11:24.293Z,99.90
2022-08-05T18:16:20.417Z,99.90
2022-08-05T18:21:04.714Z,99.90
2022-08-05T18:25:59.435Z,99.90
2022-08-05T18:30:43.351Z,99.90
2022-08-05T18:35:49.660Z,99.90
2022-08-05T18:41:55.193Z,99.90
2022-08-05T18:45:41.848Z,99.90
2022-08-05T18:50:46.290Z,99.50
2022-08-05T18:55:32.455Z,98.90
2022-08-05T19:00:20.521Z,98.40
2022-08-05T19:06:06.183Z,98.20
2022-08-05T19:10:11.240Z,98.20
2022-08-05T19:15:00.872Z,98.40
2022-08-05T19:19:48.607Z,98.70
2022-08-05T19:24:34.277Z,98.30
2022-08-05T19:29:19.159Z,99.90
2022-08-05T19:34:04.595Z,99.90
2022-08-05T19:38:49.833Z,99.90
2022-08-05T19:44:06.019Z,98.40
2022-08-05T19:48:38.859Z,98.30
2022-08-05T19:54:05.012Z,99.40
2022-08-05T19:58:29.964Z,99.90
2022-08-05T20:03:14.303Z,99.90
2022-08-05T20:07:59.030Z,99.90
2022-08-05T20:12:47.509Z,99.90
2022-08-05T20:17:33.710Z,99.90
2022-08-05T20:22:20.524Z,99.90
2022-08-05T20:27:04.485Z,99.90
2022-08-05T20:31:58.378Z,99.90
2022-08-05T20:36:43.877Z,99.90
2022-08-05T20:41:44.007Z,99.90
2022-08-05T20:46:28.834Z,99.90
2022-08-05T20:51:13.866Z,99.90
2022-08-05T20:56:08.551Z,99.90
2022-08-05T21:00:54.775Z,99.90
2022-08-05T21:05:53.552Z,99.90
2022-08-05T21:10:39.940Z,99.90
2022-08-05T21:15:33.778Z,99.90
2022-08-05T21:20:32.673Z,99.90
2022-08-05T21:25:17.640Z,99.90
2022-08-05T21:30:03.227Z,99.90
2022-08-05T21:34:55.928Z,99.90
2022-08-05T21:39:50.569Z,99.90
2022-08-05T21:44:35.592Z,99.90
2022-08-05T21:49:58.621Z,99.90
2022-08-05T21:54:28.096Z,99.90
2022-08-05T21:59:24.205Z,99.90
2022-08-05T22:04:13.497Z,99.90
2022-08-05T22:09:01.421Z,99.90
2022-08-05T22:14:32.446Z,99.90
2022-08-05T22:19:01.305Z,99.90
2022-08-05T22:24:12.880Z,99.90
2022-08-05T22:29:08.094Z,99.90
2022-08-05T22:33:58.407Z,99.90
2022-08-05T22:38:48.739Z,99.90
2022-08-05T22:43:37.411Z,99.90
2022-08-05T22:48:23.052Z,99.90
2022-08-05T22:53:13.227Z,99.90
2022-08-05T22:58:00.436Z,99.90
2022-08-05T23:02:47.035Z,99.90
2022-08-05T23:07:32.917Z,99.90
2022-08-05T23:12:28.988Z,99.90
2022-08-05T23:17:34.937Z,99.90
2022-08-05T23:22:27.169Z,99.90
2022-08-05T23:27:12.720Z,99.90
2022-08-05T23:31:56.911Z,99.90
2022-08-05T23:36:44.828Z,99.90
2022-08-05T23:41:28.721Z,99.90
2022-08-05T23:46:19.762Z,99.90
2022-08-05T23:51:04.495Z,99.90
2022-08-05T23:55:48.096Z,99.90
